Time,TemperatureF,DewpointF,PressureIn,WindDirection,WindDirectionDegrees,WindSpeedMPH,WindSpeedGustMPH,Humidity,HourlyPrecipIn,Conditions,Clouds,dailyrainin,SolarRadiationWatts/m^2,SoftwareType,DateUTC
2013-04-30 00:00:00,32.0,-99.9,-100.00,NNW,345,4.0,9.0,-999,-99.99,,,0.00,0.000000,,2013-04-30 06:00:00,
2013-04-30 00:52:00,32.0,-99.9,-100.00,NNW,345,4.0,9.0,-999,-99.99,,,0.00,0.000000,,2013-04-30 06:52:00,
2013-04-30 01:00:00,30.0,-99.9,-100.00,NW,322,6.0,9.0,-999,-99.99,,,-99.99,0.000000,,2013-04-30 07:00:00,
2013-04-30 01:52:00,30.0,-99.9,-100.00,North,-999,-999.0,-999.0,-999,-99.99,,,-99.99,,,2013-04-30 07:52:00,
2013-04-30 02:00:00,28.0,-99.9,-100.00,NW,316,4.0,9.0,-999,-99.99,,,-99.99,0.000000,,2013-04-30 08:00:00,
2013-04-30 02:52:00,28.0,-99.9,-100.00,NW,316,4.0,9.0,-999,-99.99,,,-99.99,0.000000,,2013-04-30 08:52:00,
2013-04-30 03:00:00,29.0,-99.9,-100.00,NW,314,3.0,6.0,-999,-99.99,,,-99.99,0.000000,,2013-04-30 09:00:00,
2013-04-30 04:00:00,27.0,-99.9,-100.00,NW,319,2.0,5.0,-999,-99.99,,,0.00,0.000000,,2013-04-30 10:00:00,
2013-04-30 08:00:00,32.0,-99.9,-100.00,NNE,13,1.0,4.0,-999,-99.99,,,-99.99,2.800000,,2013-04-30 14:00:00,
2013-04-30 08:52:00,32.0,-99.9,-100.00,North,-999,-999.0,-999.0,-999,-99.99,,,-99.99,,,2013-04-30 14:52:00,
2013-04-30 09:00:00,34.0,-99.9,-100.00,NNW,332,5.0,13.0,-999,-99.99,,,0.00,7.400000,,2013-04-30 15:00:00,
2013-04-30 10:00:00,34.0,-99.9,-100.00,NW,305,8.0,16.0,-999,-99.99,,,0.00,8.000000,,2013-04-30 16:00:00,
2013-04-30 11:00:00,36.0,-99.9,-100.00,NW,307,10.0,17.0,-999,-99.99,,,0.00,9.900000,,2013-04-30 17:00:00,
2013-04-30 12:00:00,36.0,-99.9,-100.00,NW,310,9.0,15.0,-999,-99.99,,,0.00,11.300000,,2013-04-30 18:00:00,
2013-04-30 13:00:00,38.0,-99.9,-100.00,WNW,298,10.0,18.0,-999,-99.99,,,-99.99,22.000000,,2013-04-30 19:00:00,
2013-04-30 15:00:00,42.0,-99.9,-100.00,NW,318,9.0,16.0,-999,-99.99,,,0.00,17.400000,,2013-04-30 21:00:00,
2013-04-30 17:00:00,40.0,-99.9,-100.00,NNW,328,10.0,27.0,-999,-99.99,,,0.00,10.100000,,2013-04-30 23:00:00,
2013-04-30 18:00:00,38.0,-99.9,-100.00,NW,305,13.0,25.0,-999,-99.99,,,0.00,13.600000,,2013-05-01 00:00:00,
2013-04-30 18:52:00,38.0,-99.9,-100.00,NW,305,13.0,25.0,-999,-99.99,,,0.00,13.600000,,2013-05-01 00:52:00,
2013-04-30 19:00:00,33.0,-99.9,-100.00,NNW,345,14.0,23.0,-999,-99.99,,,-99.99,8.200000,,2013-05-01 01:00:00,
2013-04-30 20:00:00,35.0,-99.9,-100.00,NNW,341,14.0,21.0,-999,-99.99,,,0.00,4.400000,,2013-05-01 02:00:00,
2013-04-30 21:00:00,31.0,-99.9,-100.00,NNW,330,11.0,15.0,-999,-99.99,,,-99.99,0.900000,,2013-05-01 03:00:00,
2013-04-30 23:00:00,28.0,-99.9,-100.00,NW,317,9.0,14.0,-999,-99.99,,,-99.99,0.000000,,2013-05-01 05:00:00,
2013-04-30 23:53:00,28.0,-99.9,-100.00,NW,317,9.0,14.0,-999,-99.99,,,-99.99,0.000000,,2013-05-01 05:53:00,